sensor_id;sensor_type;location;lat;lon;timestamp;temperature;humidity
18173;DHT22;9211;48.818;9.312;2023-02-22T00:00:33;4.70;99.90
18173;DHT22;9211;48.818;9.312;2023-02-22T00:03:10;4.70;99.90
18173;DHT22;9211;48.818;9.312;2023-02-22T00:05:37;4.70;99.90
18173;DHT22;9211;48.818;9.312;2023-02-22T00:08:05;4.70;99.90
18173;DHT22;9211;48.818;9.312;2023-02-22T00:10:36;4.80;99.90
18173;DHT22;9211;48.818;9.312;2023-02-22T00:13:05;4.60;99.90
18173;DHT22;9211;48.818;9.312;2023-02-22T00:15:33;4.60;99.90
18173;DHT22;9211;48.818;9.312;2023-02-22T00:18:02;4.50;99.90
18173;DHT22;9211;48.818;9.312;2023-02-22T00:20:29;4.40;99.90
18173;DHT22;9211;48.818;9.312;2023-02-22T00:22:56;4.40;99.90
18173;DHT22;9211;48.818;9.312;2023-02-22T00:25:26;4.40;99.90
18173;DHT22;9211;48.818;9.312;2023-02-22T00:27:54;4.50;99.90
18173;DHT22;9211;48.818;9.312;2023-02-22T00:30:23;4.50;99.90
18173;DHT22;9211;48.818;9.312;2023-02-22T00:32:53;4.50;99.90
18173;DHT22;9211;48.818;9.312;2023-02-22T00:35:23;4.60;99.90
18173;DHT22;9211;48.818;9.312;2023-02-22T00:37:53;4.50;99.90
18173;DHT22;9211;48.818;9.312;2023-02-22T00:40:22;4.50;99.90
18173;DHT22;9211;48.818;9.312;2023-02-22T00:42:50;4.40;99.90
18173;DHT22;9211;48.818;9.312;2023-02-22T00:45:20;4.30;99.90
18173;DHT22;9211;48.818;9.312;2023-02-22T00:47:48;4.40;99.90
18173;DHT22;9211;48.818;9.312;2023-02-22T00:50:15;4.30;99.90
18173;DHT22;9211;48.818;9.312;2023-02-22T00:52:43;4.30;99.90
18173;DHT22;9211;48.818;9.312;2023-02-22T00:55:16;4.40;99.90
18173;DHT22;9211;48.818;9.312;2023-02-22T00:57:44;4.40;99.90
18173;DHT22;9211;48.818;9.312;2023-02-22T01:00:16;4.30;99.90
18173;DHT22;9211;48.818;9.312;2023-02-22T01:02:45;4.20;99.90
18173;DHT22;9211;48.818;9.312;2023-02-22T01:05:16;4.20;99.90
18173;DHT22;9211;48.818;9.312;2023-02-22T01:07:43;4.20;99.90
18173;DHT22;9211;48.818;9.312;2023-02-22T01:10:11;4.20;99.90
18173;DHT22;9211;48.818;9.312;2023-02-22T01:12:39;4.20;99.90
18173;DHT22;9211;48.818;9.312;2023-02-22T01:15:08;4.30;99.90
18173;DHT22;9211;48.818;9.312;2023-02-22T01:17:36;4.30;99.90
18173;DHT22;9211;48.818;9.312;2023-02-22T01:20:07;4.20;99.90
18173;DHT22;9211;48.818;9.312;2023-02-22T01:22:37;4.10;99.90
18173;DHT22;9211;48.818;9.312;2023-02-22T01:25:05;4.10;99.90
18173;DHT22;9211;48.818;9.312;2023-02-22T01:27:32;4.10;99.90
18173;DHT22;9211;48.818;9.312;2023-02-22T01:30:00;4.10;99.90
18173;DHT22;9211;48.818;9.312;2023-02-22T01:32:34;4.00;99.90
18173;DHT22;9211;48.818;9.312;2023-02-22T01:35:01;4.00;99.90
18173;DHT22;9211;48.818;9.312;2023-02-22T01:37:31;4.00;99.90
18173;DHT22;9211;48.818;9.312;2023-02-22T01:39:59;4.00;99.90
18173;DHT22;9211;48.818;9.312;2023-02-22T01:42:26;4.00;99.90
18173;DHT22;9211;48.818;9.312;2023-02-22T01:48:09;4.10;99.90
18173;DHT22;9211;48.818;9.312;2023-02-22T01:50:41;4.00;99.90
18173;DHT22;9211;48.818;9.312;2023-02-22T01:53:15;4.00;99.90
18173;DHT22;9211;48.818;9.312;2023-02-22T01:55:44;4.00;99.90
18173;DHT22;9211;48.818;9.312;2023-02-22T01:58:12;3.80;99.90
18173;DHT22;9211;48.818;9.312;2023-02-22T02:00:41;3.70;99.90
18173;DHT22;9211;48.818;9.312;2023-02-22T02:03:12;3.70;99.90
18173;DHT22;9211;48.818;9.312;2023-02-22T02:05:41;3.60;99.90
18173;DHT22;9211;48.818;9.312;2023-02-22T02:08:18;3.70;99.90
18173;DHT22;9211;48.818;9.312;2023-02-22T02:10:47;3.70;99.90
18173;DHT22;9211;48.818;9.312;2023-02-22T02:13:15;3.70;99.90
18173;DHT22;9211;48.818;9.312;2023-02-22T02:15:42;3.70;99.90
18173;DHT22;9211;48.818;9.312;2023-02-22T02:18:11;3.70;99.90
18173;DHT22;9211;48.818;9.312;2023-02-22T02:20:44;3.70;99.90
18173;DHT22;9211;48.818;9.312;2023-02-22T02:26:40;3.80;99.90
18173;DHT22;9211;48.818;9.312;2023-02-22T02:32:34;3.70;99.90
18173;DHT22;9211;48.818;9.312;2023-02-22T02:35:08;3.60;99.90
18173;DHT22;9211;48.818;9.312;2023-02-22T02:37:53;3.60;99.90
18173;DHT22;9211;48.818;9.312;2023-02-22T02:40:26;3.60;99.90
18173;DHT22;9211;48.818;9.312;2023-02-22T02:43:00;3.60;99.90
18173;DHT22;9211;48.818;9.312;2023-02-22T02:45:34;3.60;99.90
18173;DHT22;9211;48.818;9.312;2023-02-22T02:48:06;3.60;99.90
18173;DHT22;9211;48.818;9.312;2023-02-22T02:50:38;3.70;99.90
18173;DHT22;9211;48.818;9.312;2023-02-22T02:53:08;3.70;99.90
18173;DHT22;9211;48.818;9.312;2023-02-22T02:55:36;3.70;99.90
18173;DHT22;9211;48.818;9.312;2023-02-22T02:58:05;3.70;99.90
18173;DHT22;9211;48.818;9.312;2023-02-22T03:03:35;3.70;99.90
18173;DHT22;9211;48.818;9.312;2023-02-22T03:06:23;3.80;99.90
18173;DHT22;9211;48.818;9.312;2023-02-22T03:08:56;3.80;99.90
18173;DHT22;9211;48.818;9.312;2023-02-22T03:11:27;3.90;99.90
18173;DHT22;9211;48.818;9.312;2023-02-22T03:14:02;4.00;99.90
18173;DHT22;9211;48.818;9.312;2023-02-22T03:16:33;4.00;99.90
18173;DHT22;9211;48.818;9.312;2023-02-22T03:19:10;3.90;99.90
18173;DHT22;9211;48.818;9.312;2023-02-22T03:21:45;4.00;99.90
18173;DHT22;9211;48.818;9.312;2023-02-22T03:24:18;3.90;99.90
18173;DHT22;9211;48.818;9.312;2023-02-22T03:26:52;3.90;99.90
18173;DHT22;9211;48.818;9.312;2023-02-22T03:29:23;3.80;99.90
18173;DHT22;9211;48.818;9.312;2023-02-22T03:31:54;3.80;99.90
18173;DHT22;9211;48.818;9.312;2023-02-22T03:34:31;3.80;99.90
18173;DHT22;9211;48.818;9.312;2023-02-22T03:37:02;3.80;99.90
18173;DHT22;9211;48.818;9.312;2023-02-22T03:39:35;3.80;99.90
18173;DHT22;9211;48.818;9.312;2023-02-22T03:42:06;3.80;99.90
18173;DHT22;9211;48.818;9.312;2023-02-22T03:44:37;3.80;99.90
18173;DHT22;9211;48.818;9.312;2023-02-22T03:47:08;3.70;99.90
18173;DHT22;9211;48.818;9.312;2023-02-22T03:49:40;3.70;99.90
18173;DHT22;9211;48.818;9.312;2023-02-22T03:52:08;3.70;99.90
18173;DHT22;9211;48.818;9.312;2023-02-22T03:54:38;3.70;99.90
18173;DHT22;9211;48.818;9.312;2023-02-22T03:57:09;3.60;99.90
18173;DHT22;9211;48.818;9.312;2023-02-22T03:59:40;3.60;99.90
18173;DHT22;9211;48.818;9.312;2023-02-22T04:02:08;3.70;99.90
18173;DHT22;9211;48.818;9.312;2023-02-22T04:04:36;3.70;99.90
18173;DHT22;9211;48.818;9.312;2023-02-22T04:07:05;3.70;99.90
18173;DHT22;9211;48.818;9.312;2023-02-22T04:09:32;3.80;99.90
18173;DHT22;9211;48.818;9.312;2023-02-22T04:11:59;3.70;99.90
18173;DHT22;9211;48.818;9.312;2023-02-22T04:14:27;3.70;99.90
18173;DHT22;9211;48.818;9.312;2023-02-22T04:16:55;3.70;99.90
18173;DHT22;9211;48.818;9.312;2023-02-22T04:19:23;3.70;99.90
18173;DHT22;9211;48.818;9.312;2023-02-22T04:21:52;3.70;99.90
18173;DHT22;9211;48.818;9.312;2023-02-22T04:24:23;3.80;99.90
18173;DHT22;9211;48.818;9.312;2023-02-22T04:26:52;3.80;99.90
18173;DHT22;9211;48.818;9.312;2023-02-22T04:29:20;3.80;99.90
18173;DHT22;9211;48.818;9.312;2023-02-22T04:31:47;3.70;99.90
18173;DHT22;9211;48.818;9.312;2023-02-22T04:34:15;3.60;99.90
18173;DHT22;9211;48.818;9.312;2023-02-22T04:36:42;3.60;99.90
18173;DHT22;9211;48.818;9.312;2023-02-22T04:39:11;3.60;99.90
18173;DHT22;9211;48.818;9.312;2023-02-22T04:41:38;3.60;99.90
18173;DHT22;9211;48.818;9.312;2023-02-22T04:44:06;3.70;99.90
18173;DHT22;9211;48.818;9.312;2023-02-22T04:46:33;3.60;99.90
18173;DHT22;9211;48.818;9.312;2023-02-22T04:49:01;3.70;99.90
18173;DHT22;9211;48.818;9.312;2023-02-22T04:51:31;3.70;99.90
18173;DHT22;9211;48.818;9.312;2023-02-22T04:54:00;3.70;99.90
18173;DHT22;9211;48.818;9.312;2023-02-22T04:56:30;3.90;99.90
18173;DHT22;9211;48.818;9.312;2023-02-22T04:58:58;3.90;99.90
18173;DHT22;9211;48.818;9.312;2023-02-22T05:01:30;4.00;99.90
18173;DHT22;9211;48.818;9.312;2023-02-22T05:03:58;4.00;99.90
18173;DHT22;9211;48.818;9.312;2023-02-22T05:06:25;4.10;99.90
18173;DHT22;9211;48.818;9.312;2023-02-22T05:08:52;4.10;99.90
18173;DHT22;9211;48.818;9.312;2023-02-22T05:11:19;4.10;99.90
18173;DHT22;9211;48.818;9.312;2023-02-22T05:13:48;4.10;99.90
18173;DHT22;9211;48.818;9.312;2023-02-22T05:16:15;4.10;99.90
18173;DHT22;9211;48.818;9.312;2023-02-22T05:18:42;4.20;99.90
18173;DHT22;9211;48.818;9.312;2023-02-22T05:21:09;4.20;99.90
18173;DHT22;9211;48.818;9.312;2023-02-22T05:23:38;4.10;99.90
18173;DHT22;9211;48.818;9.312;2023-02-22T05:26:06;4.00;99.90
18173;DHT22;9211;48.818;9.312;2023-02-22T05:28:33;4.00;99.90
18173;DHT22;9211;48.818;9.312;2023-02-22T05:31:01;3.90;99.90
18173;DHT22;9211;48.818;9.312;2023-02-22T05:33:28;3.90;99.90
18173;DHT22;9211;48.818;9.312;2023-02-22T05:35:55;3.90;99.90
18173;DHT22;9211;48.818;9.312;2023-02-22T05:38:22;3.80;99.90
18173;DHT22;9211;48.818;9.312;2023-02-22T05:40:49;3.90;99.90
18173;DHT22;9211;48.818;9.312;2023-02-22T05:43:17;3.70;99.90
18173;DHT22;9211;48.818;9.312;2023-02-22T05:45:43;3.80;99.90
18173;DHT22;9211;48.818;9.312;2023-02-22T05:48:12;3.70;99.90
18173;DHT22;9211;48.818;9.312;2023-02-22T05:50:39;3.70;99.90
18173;DHT22;9211;48.818;9.312;2023-02-22T05:53:06;3.80;99.90
18173;DHT22;9211;48.818;9.312;2023-02-22T05:55:33;3.80;99.90
18173;DHT22;9211;48.818;9.312;2023-02-22T05:58:00;3.80;99.90
18173;DHT22;9211;48.818;9.312;2023-02-22T06:00:30;3.80;99.90
18173;DHT22;9211;48.818;9.312;2023-02-22T06:02:58;3.90;99.90
18173;DHT22;9211;48.818;9.312;2023-02-22T06:05:27;3.90;99.90
18173;DHT22;9211;48.818;9.312;2023-02-22T06:07:55;3.90;99.90
18173;DHT22;9211;48.818;9.312;2023-02-22T06:10:22;4.00;99.90
18173;DHT22;9211;48.818;9.312;2023-02-22T06:12:50;4.00;99.90
18173;DHT22;9211;48.818;9.312;2023-02-22T06:15:18;4.00;99.90
18173;DHT22;9211;48.818;9.312;2023-02-22T06:17:46;4.00;99.90
18173;DHT22;9211;48.818;9.312;2023-02-22T06:20:15;4.00;99.90
18173;DHT22;9211;48.818;9.312;2023-02-22T06:22:45;4.00;99.90
18173;DHT22;9211;48.818;9.312;2023-02-22T06:25:14;4.00;99.90
18173;DHT22;9211;48.818;9.312;2023-02-22T06:27:41;3.90;99.90
18173;DHT22;9211;48.818;9.312;2023-02-22T06:30:08;3.90;99.90
18173;DHT22;9211;48.818;9.312;2023-02-22T06:32:36;4.00;99.90
18173;DHT22;9211;48.818;9.312;2023-02-22T06:35:04;4.00;99.90
18173;DHT22;9211;48.818;9.312;2023-02-22T06:37:31;4.00;99.90
18173;DHT22;9211;48.818;9.312;2023-02-22T06:39:59;4.00;99.90
18173;DHT22;9211;48.818;9.312;2023-02-22T06:42:26;4.00;99.90
18173;DHT22;9211;48.818;9.312;2023-02-22T06:44:53;4.00;99.90
18173;DHT22;9211;48.818;9.312;2023-02-22T06:47:20;4.00;99.90
18173;DHT22;9211;48.818;9.312;2023-02-22T06:49:52;4.00;99.90
18173;DHT22;9211;48.818;9.312;2023-02-22T06:52:19;3.90;99.90
18173;DHT22;9211;48.818;9.312;2023-02-22T06:54:46;4.00;99.90
18173;DHT22;9211;48.818;9.312;2023-02-22T06:57:15;4.00;99.90
18173;DHT22;9211;48.818;9.312;2023-02-22T06:59:43;4.10;99.90
18173;DHT22;9211;48.818;9.312;2023-02-22T07:02:10;4.00;99.90
18173;DHT22;9211;48.818;9.312;2023-02-22T07:04:37;4.10;99.90
18173;DHT22;9211;48.818;9.312;2023-02-22T07:07:05;4.10;99.90
18173;DHT22;9211;48.818;9.312;2023-02-22T07:09:32;4.20;99.90
18173;DHT22;9211;48.818;9.312;2023-02-22T07:11:59;4.20;99.90
18173;DHT22;9211;48.818;9.312;2023-02-22T07:14:27;4.30;99.90
18173;DHT22;9211;48.818;9.312;2023-02-22T07:16:54;4.30;99.90
18173;DHT22;9211;48.818;9.312;2023-02-22T07:19:21;4.40;99.90
18173;DHT22;9211;48.818;9.312;2023-02-22T07:21:49;4.40;99.90
18173;DHT22;9211;48.818;9.312;2023-02-22T07:24:22;4.50;99.90
18173;DHT22;9211;48.818;9.312;2023-02-22T07:26:49;4.60;99.90
18173;DHT22;9211;48.818;9.312;2023-02-22T07:29:16;4.60;99.90
18173;DHT22;9211;48.818;9.312;2023-02-22T07:31:44;4.70;99.90
18173;DHT22;9211;48.818;9.312;2023-02-22T07:34:11;4.80;99.90
18173;DHT22;9211;48.818;9.312;2023-02-22T07:36:38;4.90;99.90
18173;DHT22;9211;48.818;9.312;2023-02-22T07:39:06;4.90;99.90
18173;DHT22;9211;48.818;9.312;2023-02-22T07:41:33;5.00;99.90
18173;DHT22;9211;48.818;9.312;2023-02-22T07:44:00;5.10;99.90
18173;DHT22;9211;48.818;9.312;2023-02-22T07:46:27;5.20;99.90
18173;DHT22;9211;48.818;9.312;2023-02-22T07:48:55;5.30;99.90
18173;DHT22;9211;48.818;9.312;2023-02-22T07:51:22;5.40;99.90
18173;DHT22;9211;48.818;9.312;2023-02-22T07:53:49;5.40;99.90
18173;DHT22;9211;48.818;9.312;2023-02-22T07:56:16;5.50;99.90
18173;DHT22;9211;48.818;9.312;2023-02-22T07:58:43;5.60;99.90
18173;DHT22;9211;48.818;9.312;2023-02-22T08:01:10;5.70;99.90
18173;DHT22;9211;48.818;9.312;2023-02-22T08:03:37;5.70;99.90
18173;DHT22;9211;48.818;9.312;2023-02-22T08:06:06;5.70;99.90
18173;DHT22;9211;48.818;9.312;2023-02-22T08:08:34;5.90;99.90
18173;DHT22;9211;48.818;9.312;2023-02-22T08:11:01;6.00;99.90
18173;DHT22;9211;48.818;9.312;2023-02-22T08:13:28;6.10;99.90
18173;DHT22;9211;48.818;9.312;2023-02-22T08:15:55;6.20;99.90
18173;DHT22;9211;48.818;9.312;2023-02-22T08:18:23;6.30;99.90
18173;DHT22;9211;48.818;9.312;2023-02-22T08:20:51;6.30;99.90
18173;DHT22;9211;48.818;9.312;2023-02-22T08:23:21;6.40;99.90
18173;DHT22;9211;48.818;9.312;2023-02-22T08:25:49;6.50;99.90
18173;DHT22;9211;48.818;9.312;2023-02-22T08:28:19;6.60;99.90
18173;DHT22;9211;48.818;9.312;2023-02-22T08:30:47;6.70;99.90
18173;DHT22;9211;48.818;9.312;2023-02-22T08:33:15;6.80;99.90
18173;DHT22;9211;48.818;9.312;2023-02-22T08:35:44;6.90;99.90
18173;DHT22;9211;48.818;9.312;2023-02-22T08:38:18;6.90;99.90
18173;DHT22;9211;48.818;9.312;2023-02-22T08:40:47;7.00;99.90
18173;DHT22;9211;48.818;9.312;2023-02-22T08:43:15;7.10;99.90
18173;DHT22;9211;48.818;9.312;2023-02-22T08:45:42;7.20;99.90
18173;DHT22;9211;48.818;9.312;2023-02-22T08:48:10;7.20;99.90
18173;DHT22;9211;48.818;9.312;2023-02-22T08:50:38;7.30;99.90
18173;DHT22;9211;48.818;9.312;2023-02-22T08:53:07;7.40;99.90
18173;DHT22;9211;48.818;9.312;2023-02-22T08:55:36;7.50;99.90
18173;DHT22;9211;48.818;9.312;2023-02-22T08:58:06;7.50;99.90
18173;DHT22;9211;48.818;9.312;2023-02-22T09:00:34;7.70;99.90
18173;DHT22;9211;48.818;9.312;2023-02-22T09:03:04;7.90;99.90
18173;DHT22;9211;48.818;9.312;2023-02-22T09:05:31;8.00;99.90
18173;DHT22;9211;48.818;9.312;2023-02-22T09:07:58;8.10;99.90
18173;DHT22;9211;48.818;9.312;2023-02-22T09:10:28;8.20;99.90
18173;DHT22;9211;48.818;9.312;2023-02-22T09:12:56;8.20;99.90
18173;DHT22;9211;48.818;9.312;2023-02-22T09:15:27;8.30;99.90
18173;DHT22;9211;48.818;9.312;2023-02-22T09:17:54;8.40;99.90
18173;DHT22;9211;48.818;9.312;2023-02-22T09:20:23;8.50;99.90
18173;DHT22;9211;48.818;9.312;2023-02-22T09:22:50;8.50;99.90
18173;DHT22;9211;48.818;9.312;2023-02-22T09:25:20;8.50;99.90
18173;DHT22;9211;48.818;9.312;2023-02-22T09:27:48;8.60;99.90
18173;DHT22;9211;48.818;9.312;2023-02-22T09:30:18;8.60;99.90
18173;DHT22;9211;48.818;9.312;2023-02-22T09:32:52;8.60;99.90
18173;DHT22;9211;48.818;9.312;2023-02-22T09:35:20;8.60;99.90
18173;DHT22;9211;48.818;9.312;2023-02-22T09:37:52;8.60;99.90
18173;DHT22;9211;48.818;9.312;2023-02-22T09:40:20;8.60;99.90
18173;DHT22;9211;48.818;9.312;2023-02-22T09:43:02;8.70;99.90
18173;DHT22;9211;48.818;9.312;2023-02-22T09:45:37;8.80;99.90
18173;DHT22;9211;48.818;9.312;2023-02-22T09:48:06;8.80;99.90
18173;DHT22;9211;48.818;9.312;2023-02-22T09:50:36;8.90;99.90
18173;DHT22;9211;48.818;9.312;2023-02-22T09:53:05;8.90;99.90
18173;DHT22;9211;48.818;9.312;2023-02-22T09:55:36;9.10;99.90
18173;DHT22;9211;48.818;9.312;2023-02-22T09:58:09;9.10;99.90
18173;DHT22;9211;48.818;9.312;2023-02-22T10:00:41;9.20;99.90
18173;DHT22;9211;48.818;9.312;2023-02-22T10:03:18;9.20;99.90
18173;DHT22;9211;48.818;9.312;2023-02-22T10:05:51;9.20;99.90
18173;DHT22;9211;48.818;9.312;2023-02-22T10:08:27;9.20;99.90
18173;DHT22;9211;48.818;9.312;2023-02-22T10:11:03;9.30;99.90
18173;DHT22;9211;48.818;9.312;2023-02-22T10:13:37;9.20;99.90
18173;DHT22;9211;48.818;9.312;2023-02-22T10:16:12;9.40;99.90
18173;DHT22;9211;48.818;9.312;2023-02-22T10:19:14;9.40;99.90
18173;DHT22;9211;48.818;9.312;2023-02-22T10:22:09;9.60;99.90
18173;DHT22;9211;48.818;9.312;2023-02-22T10:24:49;9.60;99.90
18173;DHT22;9211;48.818;9.312;2023-02-22T10:27:20;9.70;99.90
18173;DHT22;9211;48.818;9.312;2023-02-22T10:29:50;9.80;99.90
18173;DHT22;9211;48.818;9.312;2023-02-22T10:32:26;9.80;99.90
18173;DHT22;9211;48.818;9.312;2023-02-22T10:34:57;10.00;99.90
18173;DHT22;9211;48.818;9.312;2023-02-22T10:37:32;10.20;99.90
18173;DHT22;9211;48.818;9.312;2023-02-22T10:40:11;10.20;99.90
18173;DHT22;9211;48.818;9.312;2023-02-22T10:42:38;10.40;99.90
18173;DHT22;9211;48.818;9.312;2023-02-22T10:45:13;10.50;99.90
18173;DHT22;9211;48.818;9.312;2023-02-22T10:47:44;10.50;99.90
18173;DHT22;9211;48.818;9.312;2023-02-22T10:50:14;10.70;99.90
18173;DHT22;9211;48.818;9.312;2023-02-22T10:52:41;10.80;99.90
18173;DHT22;9211;48.818;9.312;2023-02-22T10:55:11;10.90;99.90
18173;DHT22;9211;48.818;9.312;2023-02-22T10:57:39;11.00;99.90
18173;DHT22;9211;48.818;9.312;2023-02-22T11:00:17;11.10;99.90
18173;DHT22;9211;48.818;9.312;2023-02-22T11:02:52;11.30;99.90
18173;DHT22;9211;48.818;9.312;2023-02-22T11:05:31;11.40;99.90
18173;DHT22;9211;48.818;9.312;2023-02-22T11:08:24;11.50;99.90
18173;DHT22;9211;48.818;9.312;2023-02-22T11:10:54;11.60;99.90
18173;DHT22;9211;48.818;9.312;2023-02-22T11:13:26;11.70;99.90
18173;DHT22;9211;48.818;9.312;2023-02-22T11:15:54;11.80;99.90
18173;DHT22;9211;48.818;9.312;2023-02-22T11:18:24;11.90;99.90
18173;DHT22;9211;48.818;9.312;2023-02-22T11:21:03;12.00;99.90
18173;DHT22;9211;48.818;9.312;2023-02-22T11:23:30;12.00;99.90
18173;DHT22;9211;48.818;9.312;2023-02-22T11:26:02;12.00;99.90
18173;DHT22;9211;48.818;9.312;2023-02-22T11:28:31;12.20;99.90
18173;DHT22;9211;48.818;9.312;2023-02-22T11:31:09;12.20;99.90
18173;DHT22;9211;48.818;9.312;2023-02-22T11:33:37;12.30;99.90
18173;DHT22;9211;48.818;9.312;2023-02-22T11:36:06;12.30;99.90
18173;DHT22;9211;48.818;9.312;2023-02-22T11:38:36;12.30;99.90
18173;DHT22;9211;48.818;9.312;2023-02-22T11:41:06;12.40;99.90
18173;DHT22;9211;48.818;9.312;2023-02-22T11:43:35;12.40;99.90
18173;DHT22;9211;48.818;9.312;2023-02-22T11:46:04;12.50;99.90
18173;DHT22;9211;48.818;9.312;2023-02-22T11:48:34;12.50;99.90
18173;DHT22;9211;48.818;9.312;2023-02-22T11:51:16;12.60;99.90
18173;DHT22;9211;48.818;9.312;2023-02-22T11:54:11;12.70;99.90
18173;DHT22;9211;48.818;9.312;2023-02-22T11:56:48;12.70;99.90
18173;DHT22;9211;48.818;9.312;2023-02-22T11:59:24;12.70;99.90
18173;DHT22;9211;48.818;9.312;2023-02-22T12:01:58;12.70;99.90
18173;DHT22;9211;48.818;9.312;2023-02-22T12:07:47;12.70;99.90
18173;DHT22;9211;48.818;9.312;2023-02-22T12:10:26;12.70;99.90
18173;DHT22;9211;48.818;9.312;2023-02-22T12:13:08;12.70;99.90
18173;DHT22;9211;48.818;9.312;2023-02-22T12:15:45;12.80;99.90
18173;DHT22;9211;48.818;9.312;2023-02-22T12:18:20;12.90;99.90
18173;DHT22;9211;48.818;9.312;2023-02-22T12:20:52;12.90;99.90
18173;DHT22;9211;48.818;9.312;2023-02-22T12:23:24;12.90;99.90
18173;DHT22;9211;48.818;9.312;2023-02-22T12:25:59;12.90;99.90
18173;DHT22;9211;48.818;9.312;2023-02-22T12:28:32;13.00;99.90
18173;DHT22;9211;48.818;9.312;2023-02-22T12:31:14;13.00;99.90
18173;DHT22;9211;48.818;9.312;2023-02-22T12:34:04;13.10;99.90
18173;DHT22;9211;48.818;9.312;2023-02-22T12:36:39;13.20;99.90
18173;DHT22;9211;48.818;9.312;2023-02-22T12:39:24;13.30;99.90
18173;DHT22;9211;48.818;9.312;2023-02-22T12:41:54;13.40;99.90
18173;DHT22;9211;48.818;9.312;2023-02-22T12:44:26;13.40;99.90
18173;DHT22;9211;48.818;9.312;2023-02-22T12:46:56;13.50;99.90
18173;DHT22;9211;48.818;9.312;2023-02-22T12:49:30;13.50;99.90
18173;DHT22;9211;48.818;9.312;2023-02-22T12:52:03;13.50;99.90
18173;DHT22;9211;48.818;9.312;2023-02-22T12:54:40;13.50;99.90
18173;DHT22;9211;48.818;9.312;2023-02-22T12:57:15;13.60;99.90
18173;DHT22;9211;48.818;9.312;2023-02-22T12:59:47;13.50;99.90
18173;DHT22;9211;48.818;9.312;2023-02-22T13:02:19;13.60;99.90
18173;DHT22;9211;48.818;9.312;2023-02-22T13:04:46;13.70;99.90
18173;DHT22;9211;48.818;9.312;2023-02-22T13:07:28;13.80;99.90
18173;DHT22;9211;48.818;9.312;2023-02-22T13:10:19;13.90;99.90
18173;DHT22;9211;48.818;9.312;2023-02-22T13:12:54;13.90;99.90
18173;DHT22;9211;48.818;9.312;2023-02-22T13:15:29;13.90;99.90
18173;DHT22;9211;48.818;9.312;2023-02-22T13:18:04;13.90;99.90
18173;DHT22;9211;48.818;9.312;2023-02-22T13:20:38;13.90;99.90
18173;DHT22;9211;48.818;9.312;2023-02-22T13:23:10;13.80;99.90
18173;DHT22;9211;48.818;9.312;2023-02-22T13:25:44;13.80;99.90
18173;DHT22;9211;48.818;9.312;2023-02-22T13:28:19;13.80;99.90
18173;DHT22;9211;48.818;9.312;2023-02-22T13:30:59;13.80;99.90
18173;DHT22;9211;48.818;9.312;2023-02-22T13:33:42;13.70;99.90
18173;DHT22;9211;48.818;9.312;2023-02-22T13:36:22;13.70;99.90
18173;DHT22;9211;48.818;9.312;2023-02-22T13:39:23;13.60;99.90
18173;DHT22;9211;48.818;9.312;2023-02-22T13:42:10;13.70;99.90
18173;DHT22;9211;48.818;9.312;2023-02-22T13:48:01;13.90;99.90
18173;DHT22;9211;48.818;9.312;2023-02-22T13:50:57;13.90;99.90
18173;DHT22;9211;48.818;9.312;2023-02-22T13:53:31;14.00;99.90
18173;DHT22;9211;48.818;9.312;2023-02-22T13:56:00;14.10;99.90
18173;DHT22;9211;48.818;9.312;2023-02-22T13:58:29;14.10;99.90
18173;DHT22;9211;48.818;9.312;2023-02-22T14:00:57;14.20;99.90
18173;DHT22;9211;48.818;9.312;2023-02-22T14:03:30;14.20;99.90
18173;DHT22;9211;48.818;9.312;2023-02-22T14:06:02;14.20;99.90
18173;DHT22;9211;48.818;9.312;2023-02-22T14:08:45;14.20;99.90
18173;DHT22;9211;48.818;9.312;2023-02-22T14:14:23;14.30;99.90
18173;DHT22;9211;48.818;9.312;2023-02-22T14:17:24;14.30;99.90
18173;DHT22;9211;48.818;9.312;2023-02-22T14:23:31;14.20;99.90
18173;DHT22;9211;48.818;9.312;2023-02-22T14:26:09;14.20;99.90
18173;DHT22;9211;48.818;9.312;2023-02-22T14:28:51;14.30;99.90
18173;DHT22;9211;48.818;9.312;2023-02-22T14:31:22;14.30;99.90
18173;DHT22;9211;48.818;9.312;2023-02-22T14:34:05;14.30;99.90
18173;DHT22;9211;48.818;9.312;2023-02-22T14:36:37;14.30;99.90
18173;DHT22;9211;48.818;9.312;2023-02-22T14:39:15;14.30;99.90
18173;DHT22;9211;48.818;9.312;2023-02-22T14:41:48;14.30;99.90
18173;DHT22;9211;48.818;9.312;2023-02-22T14:44:23;14.30;99.90
18173;DHT22;9211;48.818;9.312;2023-02-22T14:46:55;14.30;99.90
18173;DHT22;9211;48.818;9.312;2023-02-22T14:49:30;14.30;99.90
18173;DHT22;9211;48.818;9.312;2023-02-22T14:52:05;14.30;99.90
18173;DHT22;9211;48.818;9.312;2023-02-22T14:54:36;14.30;99.90
18173;DHT22;9211;48.818;9.312;2023-02-22T14:57:11;14.30;99.90
18173;DHT22;9211;48.818;9.312;2023-02-22T15:00:00;14.30;99.90
18173;DHT22;9211;48.818;9.312;2023-02-22T15:02:46;14.30;99.90
18173;DHT22;9211;48.818;9.312;2023-02-22T15:05:15;14.30;99.90
18173;DHT22;9211;48.818;9.312;2023-02-22T15:07:53;14.30;99.90
18173;DHT22;9211;48.818;9.312;2023-02-22T15:10:26;14.30;99.90
18173;DHT22;9211;48.818;9.312;2023-02-22T15:12:56;14.30;99.90
18173;DHT22;9211;48.818;9.312;2023-02-22T15:15:34;14.30;99.90
18173;DHT22;9211;48.818;9.312;2023-02-22T15:18:03;14.20;99.90
18173;DHT22;9211;48.818;9.312;2023-02-22T15:20:34;14.10;99.90
18173;DHT22;9211;48.818;9.312;2023-02-22T15:23:03;14.10;99.90
18173;DHT22;9211;48.818;9.312;2023-02-22T15:25:30;14.00;99.90
18173;DHT22;9211;48.818;9.312;2023-02-22T15:28:02;14.00;99.90
18173;DHT22;9211;48.818;9.312;2023-02-22T15:30:31;14.00;99.90
18173;DHT22;9211;48.818;9.312;2023-02-22T15:33:11;13.90;99.90
18173;DHT22;9211;48.818;9.312;2023-02-22T15:35:39;13.90;99.90
18173;DHT22;9211;48.818;9.312;2023-02-22T15:38:19;13.80;99.90
18173;DHT22;9211;48.818;9.312;2023-02-22T15:40:57;13.80;99.90
18173;DHT22;9211;48.818;9.312;2023-02-22T15:43:25;13.80;99.90
18173;DHT22;9211;48.818;9.312;2023-02-22T15:45:54;13.70;99.90
18173;DHT22;9211;48.818;9.312;2023-02-22T15:48:23;13.70;99.90
18173;DHT22;9211;48.818;9.312;2023-02-22T15:51:01;13.70;99.90
18173;DHT22;9211;48.818;9.312;2023-02-22T15:53:37;13.70;99.90
18173;DHT22;9211;48.818;9.312;2023-02-22T15:56:09;13.60;99.90
18173;DHT22;9211;48.818;9.312;2023-02-22T15:58:38;13.60;99.90
18173;DHT22;9211;48.818;9.312;2023-02-22T16:01:07;13.50;99.90
18173;DHT22;9211;48.818;9.312;2023-02-22T16:03:40;13.50;99.90
18173;DHT22;9211;48.818;9.312;2023-02-22T16:06:14;13.40;99.90
18173;DHT22;9211;48.818;9.312;2023-02-22T16:08:47;13.40;99.90
18173;DHT22;9211;48.818;9.312;2023-02-22T16:11:20;13.40;99.90
18173;DHT22;9211;48.818;9.312;2023-02-22T16:13:56;13.40;99.90
18173;DHT22;9211;48.818;9.312;2023-02-22T16:16:28;13.30;99.90
18173;DHT22;9211;48.818;9.312;2023-02-22T16:19:21;13.30;99.90
18173;DHT22;9211;48.818;9.312;2023-02-22T16:21:51;13.20;99.90
18173;DHT22;9211;48.818;9.312;2023-02-22T16:24:26;13.20;99.90
18173;DHT22;9211;48.818;9.312;2023-02-22T16:27:15;13.20;99.90
18173;DHT22;9211;48.818;9.312;2023-02-22T16:29:43;13.20;99.90
18173;DHT22;9211;48.818;9.312;2023-02-22T16:32:11;13.20;99.90
18173;DHT22;9211;48.818;9.312;2023-02-22T16:34:41;13.20;99.90
18173;DHT22;9211;48.818;9.312;2023-02-22T16:37:19;13.10;99.90
18173;DHT22;9211;48.818;9.312;2023-02-22T16:39:48;13.10;99.90
18173;DHT22;9211;48.818;9.312;2023-02-22T16:42:17;13.00;99.90
18173;DHT22;9211;48.818;9.312;2023-02-22T16:44:50;13.00;99.90
18173;DHT22;9211;48.818;9.312;2023-02-22T16:47:17;13.00;99.90